ダラス/フォートワース の空港の天気 - METARとTAF

ダラス・フォートワース国際空港 ( KDFW / DFW ) - アメリカ テキサス州ダラス & フォートワース
飛行場実況気象(Metar)
観測時間07/17 03:53 CDT (07/17 08:53 UTC)
風向・風速南南西 4m/s
視程10km以上
天気現象
なし
気温28.3℃
湿度57%
気圧1013.7hPa
METARKDFW 170853Z 20008KT 10SM CLR 28/19 A2997 RMK AO2 SLP137 T02830189 56001
過去の天気等 Google飛行場航空写真 Wunderground天気予報

過去48時間のMETAR

飛行場予報(TAF)
発表時間: 7/17 04:16 CDT (7/17 09:16 UTC)
予報対象時間: 17日4時 CDT ~ 18日7時 CDT
風向・風速南西 5m/s
視程10km以上
少しの雲 雲底高度 7620m
17日18時 CDT から
風向・風速南南東 4m/s
視程10km以上
なし
KDFW 170916Z 1709/1812 22009KT P6SM FEW250
FM172300 15008KT P6SM SKC